createdAt,value
2018-05-31T00:14:53.591Z,98214.78
2018-05-31T00:35:26.685Z,98181.72
2018-05-31T00:56:14.860Z,98174.00
2018-05-31T01:16:47.062Z,98197.61
2018-05-31T01:37:21.408Z,98132.40
2018-05-31T01:57:54.533Z,98145.73
2018-05-31T02:18:30.727Z,98124.14
2018-05-31T02:39:05.257Z,98090.93
2018-05-31T02:59:38.197Z,98037.68
2018-05-31T03:20:12.685Z,98036.25
2018-05-31T03:40:44.752Z,98036.09
2018-05-31T04:01:21.868Z,98035.80
2018-05-31T04:21:54.073Z,98036.25
2018-05-31T04:42:28.572Z,98044.21
2018-05-31T05:03:00.624Z,98046.35
2018-05-31T05:23:33.744Z,98047.38
2018-05-31T05:44:07.783Z,98065.27
2018-05-31T06:04:39.067Z,98100.95
2018-05-31T06:25:13.662Z,98121.52
2018-05-31T06:45:46.538Z,98138.02
2018-05-31T07:06:18.739Z,98157.94
2018-05-31T07:26:54.012Z,98167.50
2018-05-31T07:47:28.057Z,98164.52
2018-05-31T08:08:01.482Z,98172.27
2018-05-31T08:28:36.759Z,98180.00
2018-05-31T08:49:10.169Z,98183.03
2018-05-31T09:09:45.151Z,98199.52
2018-05-31T09:30:17.352Z,98179.34
2018-05-31T09:50:53.543Z,98179.53
2018-05-31T10:11:25.993Z,98187.40
2018-05-31T10:32:06.265Z,98174.19
2018-05-31T10:52:40.488Z,98164.38
2018-05-31T11:13:14.328Z,98152.54
2018-05-31T11:33:47.917Z,98127.88
2018-05-31T11:54:20.887Z,98124.77
2018-05-31T12:14:53.089Z,98106.89
2018-05-31T12:35:28.967Z,98112.08
2018-05-31T12:56:04.547Z,98115.75
2018-05-31T13:16:37.668Z,98104.43
2018-05-31T13:37:12.943Z,98072.14
2018-05-31T13:57:48.217Z,98068.33
2018-05-31T14:18:20.417Z,98082.10
2018-05-31T14:38:52.861Z,98077.73
2018-05-31T14:59:24.828Z,98072.59
2018-05-31T15:19:57.938Z,98049.34
2018-05-31T15:40:29.227Z,98060.28
2018-05-31T16:01:02.340Z,98033.08
2018-05-31T16:21:34.540Z,98006.61
2018-05-31T16:42:09.100Z,98002.38
2018-05-31T17:02:43.246Z,98014.60
2018-05-31T17:23:20.358Z,98014.11
2018-05-31T17:43:58.401Z,98011.64
2018-05-31T18:04:25.683Z,97986.02
2018-05-31T18:25:01.880Z,98001.06
2018-05-31T18:45:34.072Z,98052.72
2018-05-31T19:06:09.354Z,98093.81
2018-05-31T19:26:41.549Z,98115.14
2018-05-31T19:47:18.760Z,98144.28
2018-05-31T20:07:52.096Z,98143.91
2018-05-31T20:28:27.538Z,98111.81
2018-05-31T20:49:00.489Z,98110.47
2018-05-31T21:09:33.619Z,98116.02
2018-05-31T21:30:11.961Z,98093.83
2018-05-31T21:50:53.072Z,98076.91
2018-05-31T22:11:31.423Z,98058.78
2018-05-31T22:32:04.842Z,98072.23
2018-05-31T22:52:38.227Z,98130.02
2018-05-31T23:13:15.446Z,98176.91
2018-05-31T23:33:50.048Z,98151.21
2018-05-31T23:54:21.636Z,98194.80
